createdAt,value
2018-06-20T00:01:51.641Z,1.50
2018-06-20T00:04:19.886Z,1.87
2018-06-20T00:06:48.370Z,1.62
2018-06-20T00:09:17.441Z,1.98
2018-06-20T00:11:45.722Z,1.70
2018-06-20T00:14:14.835Z,1.70
2018-06-20T00:16:43.142Z,1.90
2018-06-20T00:19:11.433Z,1.50
2018-06-20T00:21:39.740Z,1.72
2018-06-20T00:24:07.953Z,1.40
2018-06-20T00:26:36.214Z,1.40
2018-06-20T00:29:04.594Z,1.57
2018-06-20T00:31:32.804Z,1.55
2018-06-20T00:34:01.104Z,1.50
2018-06-20T00:36:30.463Z,1.50
2018-06-20T00:38:58.695Z,1.57
2018-06-20T00:41:26.921Z,1.87
2018-06-20T00:43:55.902Z,1.98
2018-06-20T00:46:24.129Z,1.47
2018-06-20T00:48:52.472Z,1.45
2018-06-20T00:51:27.534Z,1.35
2018-06-20T00:53:55.822Z,1.20
2018-06-20T00:56:25.234Z,1.52
2018-06-20T00:58:53.547Z,1.70
2018-06-20T01:01:22.504Z,1.25
2018-06-20T01:03:51.170Z,1.57
2018-06-20T01:06:19.615Z,1.50
2018-06-20T01:08:55.262Z,1.20
2018-06-20T01:11:23.949Z,1.40
2018-06-20T01:13:52.242Z,1.45
2018-06-20T01:16:20.455Z,1.50
2018-06-20T01:18:48.887Z,1.22
2018-06-20T01:21:17.275Z,1.50
2018-06-20T01:23:46.012Z,1.20
2018-06-20T01:26:14.781Z,1.50
2018-06-20T01:28:43.086Z,1.30
2018-06-20T01:31:11.296Z,1.30
2018-06-20T01:33:39.974Z,1.20
2018-06-20T01:36:08.186Z,1.25
2018-06-20T01:38:36.484Z,1.55
2018-06-20T01:41:05.122Z,1.80
2018-06-20T01:43:33.346Z,1.37
2018-06-20T01:46:01.647Z,1.47
2018-06-20T01:48:30.653Z,1.25
2018-06-20T01:50:59.037Z,1.40
2018-06-20T01:53:27.276Z,1.37
2018-06-20T01:55:56.015Z,1.10
2018-06-20T01:58:24.521Z,1.32
2018-06-20T02:00:52.754Z,1.40
2018-06-20T02:03:21.006Z,1.32
2018-06-20T02:05:50.550Z,1.20
2018-06-20T02:08:20.258Z,1.47
2018-06-20T02:10:48.736Z,1.10
2018-06-20T02:13:16.946Z,1.22
2018-06-20T02:15:45.188Z,1.35
2018-06-20T02:18:13.531Z,1.40
2018-06-20T02:20:41.746Z,1.20
2018-06-20T02:23:09.959Z,1.30
2018-06-20T02:25:39.214Z,1.15
2018-06-20T02:28:07.434Z,1.32
2018-06-20T02:30:35.674Z,1.10
2018-06-20T02:33:04.050Z,1.27
2018-06-20T02:35:32.351Z,1.02
2018-06-20T02:38:00.630Z,1.20
2018-06-20T02:40:28.878Z,1.17
2018-06-20T02:42:58.059Z,1.30
2018-06-20T02:45:26.414Z,1.20
2018-06-20T02:48:01.478Z,1.30
2018-06-20T02:50:29.683Z,1.20
2018-06-20T02:52:57.899Z,1.30
2018-06-20T02:55:26.355Z,1.07
2018-06-20T02:57:54.647Z,1.17
2018-06-20T03:00:22.944Z,0.93
2018-06-20T03:02:51.765Z,1.30
2018-06-20T03:05:20.411Z,1.10
2018-06-20T03:07:54.155Z,1.15
2018-06-20T03:10:22.386Z,1.10
2018-06-20T03:12:50.618Z,1.12
2018-06-20T03:15:18.887Z,1.20
2018-06-20T03:17:47.101Z,1.12
2018-06-20T03:20:15.326Z,1.20
2018-06-20T03:22:43.675Z,1.10
2018-06-20T03:25:11.974Z,1.12
2018-06-20T03:27:40.186Z,1.10
2018-06-20T03:30:09.665Z,1.10
2018-06-20T03:32:37.881Z,1.20
2018-06-20T03:35:06.094Z,1.00
2018-06-20T03:37:34.608Z,1.10
2018-06-20T03:40:02.838Z,1.10
2018-06-20T03:42:31.058Z,1.15
2018-06-20T03:44:59.837Z,1.47
2018-06-20T03:47:28.098Z,1.00
2018-06-20T03:49:56.331Z,1.07
2018-06-20T03:52:25.797Z,0.98
2018-06-20T03:54:54.089Z,1.07
2018-06-20T03:57:22.314Z,1.20
2018-06-20T03:59:50.834Z,1.07
2018-06-20T04:02:19.102Z,1.10
2018-06-20T04:04:47.427Z,1.10
2018-06-20T04:07:15.724Z,1.10
2018-06-20T04:09:45.377Z,1.15
2018-06-20T04:12:13.647Z,0.80
2018-06-20T04:14:42.337Z,1.07
2018-06-20T04:17:10.562Z,0.90
2018-06-20T04:19:38.965Z,0.90
2018-06-20T04:22:07.490Z,1.00
2018-06-20T04:24:35.781Z,1.20
2018-06-20T04:27:04.015Z,1.00
2018-06-20T04:29:32.277Z,1.00
2018-06-20T04:32:00.486Z,0.98
2018-06-20T04:34:28.705Z,1.12
2018-06-20T04:36:57.045Z,0.90
2018-06-20T04:39:25.419Z,1.20
2018-06-20T04:41:53.714Z,1.00
2018-06-20T04:44:22.294Z,1.10
2018-06-20T04:46:50.522Z,1.05
2018-06-20T04:49:18.742Z,1.00
2018-06-20T04:51:47.414Z,1.12
2018-06-20T04:54:15.641Z,0.98
2018-06-20T04:56:43.889Z,1.10
2018-06-20T04:59:12.174Z,1.12
2018-06-20T05:01:40.410Z,1.07
2018-06-20T05:04:08.631Z,1.20
2018-06-20T05:06:37.700Z,1.17
2018-06-20T05:09:14.475Z,1.02
2018-06-20T05:11:42.799Z,1.70
2018-06-20T05:14:11.042Z,1.60
2018-06-20T05:16:39.471Z,1.70
2018-06-20T05:19:07.732Z,1.95
2018-06-20T05:21:35.961Z,1.70
2018-06-20T05:24:04.187Z,1.40
2018-06-20T05:26:33.118Z,1.40
2018-06-20T05:29:01.342Z,1.50
2018-06-20T05:31:29.582Z,1.70
2018-06-20T05:33:58.161Z,1.50
2018-06-20T05:36:26.410Z,1.20
2018-06-20T05:38:54.717Z,1.42
2018-06-20T05:41:23.309Z,1.27
2018-06-20T05:43:51.647Z,1.20
2018-06-20T05:46:20.006Z,1.40
2018-06-20T05:48:49.411Z,1.60
2018-06-20T05:51:17.798Z,1.40
2018-06-20T05:53:46.036Z,1.32
2018-06-20T05:56:14.699Z,1.40
2018-06-20T05:58:42.958Z,1.40
2018-06-20T06:01:11.203Z,1.55
2018-06-20T06:03:41.379Z,1.57
2018-06-20T06:06:11.546Z,1.50
2018-06-20T06:08:53.094Z,1.67
2018-06-20T06:11:21.335Z,1.60
2018-06-20T06:13:49.558Z,1.62
2018-06-20T06:16:18.334Z,1.75
2018-06-20T06:18:46.559Z,1.50
2018-06-20T06:21:14.780Z,1.87
2018-06-20T06:23:43.455Z,1.65
2018-06-20T06:26:11.830Z,1.47
2018-06-20T06:28:40.141Z,1.52
2018-06-20T06:31:10.851Z,1.72
2018-06-20T06:33:39.062Z,1.80
2018-06-20T06:36:07.284Z,1.70
2018-06-20T06:38:36.295Z,1.62
2018-06-20T06:41:04.673Z,1.60
2018-06-20T06:43:32.888Z,1.85
2018-06-20T06:46:01.545Z,1.55
2018-06-20T06:48:29.839Z,1.85
2018-06-20T06:50:58.160Z,1.70
2018-06-20T06:53:26.575Z,1.70
2018-06-20T06:55:54.889Z,1.52
2018-06-20T06:58:23.169Z,1.47
2018-06-20T07:00:51.607Z,1.72
2018-06-20T07:03:19.987Z,1.32
2018-06-20T07:05:48.203Z,1.57
2018-06-20T07:08:19.078Z,1.75
2018-06-20T07:10:47.370Z,1.20
2018-06-20T07:13:15.682Z,1.50
2018-06-20T07:15:45.274Z,1.40
2018-06-20T07:18:13.600Z,1.30
2018-06-20T07:20:41.834Z,1.10
2018-06-20T07:23:10.596Z,1.40
2018-06-20T07:25:38.910Z,1.12
2018-06-20T07:28:06.919Z,1.47
2018-06-20T07:30:35.957Z,1.40
2018-06-20T07:33:04.201Z,1.40
2018-06-20T07:35:32.540Z,1.52
2018-06-20T07:38:01.065Z,1.50
2018-06-20T07:40:29.302Z,1.37
2018-06-20T07:42:57.588Z,1.42
2018-06-20T07:45:26.035Z,1.60
2018-06-20T07:47:54.303Z,1.60
2018-06-20T07:50:22.514Z,1.75
2018-06-20T07:52:52.694Z,1.85
2018-06-20T07:55:20.954Z,1.90
2018-06-20T07:57:49.199Z,1.65
2018-06-20T08:00:23.016Z,2.33
2018-06-20T08:03:08.104Z,1.90
2018-06-20T08:05:42.139Z,1.92
2018-06-20T08:08:17.958Z,1.52
2018-06-20T08:10:51.908Z,1.92
2018-06-20T08:13:25.622Z,1.87
2018-06-20T08:15:59.723Z,2.20
2018-06-20T08:18:33.411Z,2.10
2018-06-20T08:21:02.823Z,2.17
2018-06-20T08:23:31.078Z,2.27
2018-06-20T08:25:59.519Z,2.35
2018-06-20T08:28:28.385Z,2.37
2018-06-20T08:30:56.625Z,3.00
2018-06-20T08:33:24.902Z,2.37
2018-06-20T08:35:53.287Z,2.77
2018-06-20T08:38:21.544Z,3.22
2018-06-20T08:40:49.794Z,3.08
2018-06-20T08:43:18.545Z,3.10
2018-06-20T08:45:46.787Z,3.35
2018-06-20T08:48:17.711Z,3.52
2018-06-20T08:50:45.935Z,3.83
2018-06-20T08:53:14.209Z,3.08
2018-06-20T08:55:43.006Z,3.92
2018-06-20T08:58:11.240Z,4.35
2018-06-20T09:00:46.011Z,3.75
2018-06-20T09:03:14.334Z,3.60
2018-06-20T09:05:48.724Z,3.52
2018-06-20T09:08:24.976Z,4.40
2018-06-20T09:11:00.335Z,3.77
2018-06-20T09:13:33.897Z,3.70
2018-06-20T09:16:07.669Z,3.50
2018-06-20T09:18:41.330Z,3.55
2018-06-20T09:21:10.257Z,3.67
2018-06-20T09:23:38.544Z,3.45
2018-06-20T09:26:06.766Z,3.25
2018-06-20T09:28:35.449Z,3.35
2018-06-20T09:31:03.719Z,3.35
2018-06-20T09:33:31.970Z,3.27
2018-06-20T09:36:00.522Z,3.52
2018-06-20T09:38:28.758Z,3.50
2018-06-20T09:40:56.989Z,2.95
2018-06-20T09:43:25.624Z,3.22
2018-06-20T09:45:53.865Z,2.87
2018-06-20T09:48:22.148Z,2.45
2018-06-20T09:50:55.781Z,2.83
2018-06-20T09:53:24.301Z,2.87
2018-06-20T09:55:52.589Z,2.60
2018-06-20T09:58:21.330Z,2.75
2018-06-20T10:00:54.866Z,2.30
2018-06-20T10:03:29.244Z,2.33
2018-06-20T10:07:06.253Z,2.40
2018-06-20T10:09:41.264Z,2.62
2018-06-20T10:12:11.063Z,2.52
2018-06-20T10:14:39.282Z,2.90
2018-06-20T10:17:07.742Z,3.83
2018-06-20T10:19:36.262Z,4.42
2018-06-20T10:22:04.501Z,3.70
2018-06-20T10:24:32.882Z,4.33
2018-06-20T10:27:01.128Z,4.00
2018-06-20T10:29:29.370Z,4.40
2018-06-20T10:31:58.213Z,4.60
2018-06-20T10:34:26.531Z,8.38
2018-06-20T10:36:54.767Z,9.38
2018-06-20T10:39:23.256Z,11.60
2018-06-20T10:41:51.570Z,11.48
2018-06-20T10:44:19.831Z,12.50
2018-06-20T10:46:53.464Z,12.35
2018-06-20T10:49:21.714Z,14.05
2018-06-20T10:51:50.000Z,14.23
2018-06-20T10:54:19.375Z,13.50
2018-06-20T10:56:53.112Z,14.78
2018-06-20T10:59:26.867Z,13.22
2018-06-20T11:02:00.590Z,13.60
2018-06-20T11:04:34.794Z,13.50
2018-06-20T11:07:11.010Z,12.50
2018-06-20T11:09:46.498Z,11.68
2018-06-20T11:12:20.207Z,11.38
2018-06-20T11:14:48.654Z,11.53
2018-06-20T11:17:16.962Z,10.25
2018-06-20T11:19:45.194Z,10.15
2018-06-20T11:22:13.623Z,9.50
2018-06-20T11:24:41.859Z,8.65
2018-06-20T11:27:10.095Z,8.85
2018-06-20T11:29:38.427Z,8.43
2018-06-20T11:32:06.674Z,7.95
2018-06-20T11:34:34.922Z,8.35
2018-06-20T11:37:03.426Z,7.22
2018-06-20T11:39:31.678Z,7.12
2018-06-20T11:41:59.887Z,7.45
2018-06-20T11:44:29.052Z,7.25
2018-06-20T11:47:02.694Z,7.33
2018-06-20T11:49:31.054Z,7.03
2018-06-20T11:51:59.092Z,6.67
2018-06-20T11:54:27.407Z,6.83
2018-06-20T11:56:56.058Z,6.95
2018-06-20T11:59:29.731Z,7.10
2018-06-20T12:02:04.998Z,6.05
2018-06-20T12:04:38.733Z,6.28
2018-06-20T12:07:14.520Z,6.65
2018-06-20T12:09:49.090Z,5.30
2018-06-20T12:12:22.907Z,5.78
2018-06-20T12:14:56.505Z,5.58
2018-06-20T12:17:30.503Z,5.87
2018-06-20T12:20:04.240Z,5.42
2018-06-20T12:22:38.512Z,5.55
2018-06-20T12:25:11.994Z,5.08
2018-06-20T12:27:45.936Z,5.10
2018-06-20T12:30:19.746Z,5.28
2018-06-20T12:32:53.855Z,4.67
2018-06-20T12:35:27.607Z,4.35
2018-06-20T12:38:04.277Z,4.87
2018-06-20T12:40:38.027Z,4.15
2018-06-20T12:43:11.946Z,5.00
2018-06-20T12:45:40.490Z,4.72
2018-06-20T12:48:08.706Z,4.42
2018-06-20T12:50:37.219Z,4.10
2018-06-20T12:53:05.489Z,4.30
2018-06-20T12:55:33.722Z,4.30
2018-06-20T12:58:03.237Z,4.60
2018-06-20T13:00:31.545Z,4.35
2018-06-20T13:02:59.796Z,4.30
2018-06-20T13:05:28.380Z,4.22
2018-06-20T13:07:58.162Z,4.22
2018-06-20T13:10:26.566Z,4.25
2018-06-20T13:12:55.158Z,3.65
2018-06-20T13:15:23.408Z,3.60
2018-06-20T13:17:51.706Z,3.80
2018-06-20T13:20:20.096Z,3.67
2018-06-20T13:22:48.320Z,3.35
2018-06-20T13:25:16.546Z,3.40
2018-06-20T13:27:47.476Z,3.62
2018-06-20T13:30:16.100Z,3.62
2018-06-20T13:32:51.207Z,3.50
2018-06-20T13:35:24.783Z,3.70
2018-06-20T13:37:59.126Z,3.80
2018-06-20T13:40:32.842Z,3.65
2018-06-20T13:43:07.246Z,4.20
2018-06-20T13:45:40.761Z,3.40
2018-06-20T13:48:15.755Z,3.72
2018-06-20T13:50:43.975Z,3.90
2018-06-20T13:53:12.309Z,3.20
2018-06-20T13:55:40.822Z,3.60
2018-06-20T13:58:12.838Z,3.87
2018-06-20T14:00:43.003Z,3.83
2018-06-20T14:03:11.322Z,3.37
2018-06-20T14:05:39.554Z,3.72
2018-06-20T14:08:09.925Z,3.37
2018-06-20T14:10:37.929Z,2.98
2018-06-20T14:13:06.141Z,3.12
2018-06-20T14:15:35.534Z,3.30
2018-06-20T14:18:03.783Z,3.55
2018-06-20T14:20:37.875Z,3.37
2018-06-20T14:23:06.220Z,3.80
2018-06-20T14:25:34.516Z,3.75
2018-06-20T14:28:03.992Z,3.60
2018-06-20T14:30:37.589Z,3.33
2018-06-20T14:33:11.623Z,3.70
2018-06-20T14:35:45.311Z,3.40
2018-06-20T14:38:19.211Z,3.15
2018-06-20T14:40:52.864Z,3.80
2018-06-20T14:43:26.923Z,3.20
2018-06-20T14:46:00.611Z,3.00
2018-06-20T14:48:28.899Z,3.20
2018-06-20T14:50:57.161Z,3.30
2018-06-20T14:53:25.402Z,3.33
2018-06-20T14:55:53.698Z,2.90
2018-06-20T14:58:21.931Z,2.67
2018-06-20T15:00:50.255Z,3.52
2018-06-20T15:03:19.084Z,3.47
2018-06-20T15:05:47.333Z,3.12
2018-06-20T15:08:17.989Z,3.30
2018-06-20T15:10:46.288Z,3.20
2018-06-20T15:13:14.551Z,2.90
2018-06-20T15:15:42.885Z,3.12
2018-06-20T15:18:11.122Z,3.22
2018-06-20T15:20:39.363Z,2.95
2018-06-20T15:23:07.854Z,3.08
2018-06-20T15:25:36.144Z,2.80
2018-06-20T15:28:10.487Z,3.05
2018-06-20T15:30:44.061Z,2.83
2018-06-20T15:33:18.161Z,3.33
2018-06-20T15:35:51.898Z,3.20
2018-06-20T15:38:24.852Z,2.50
2018-06-20T15:40:53.103Z,2.67
2018-06-20T15:43:21.418Z,2.65
2018-06-20T15:45:49.893Z,2.83
2018-06-20T15:48:18.276Z,2.58
2018-06-20T15:50:46.551Z,2.60
2018-06-20T15:53:14.893Z,2.77
2018-06-20T15:55:43.173Z,2.58
2018-06-20T15:58:11.484Z,2.67
2018-06-20T16:00:39.964Z,2.62
2018-06-20T16:03:08.227Z,2.75
2018-06-20T16:05:36.504Z,2.60
2018-06-20T16:08:06.635Z,2.35
2018-06-20T16:10:34.903Z,2.40
2018-06-20T16:13:03.171Z,2.80
2018-06-20T16:15:31.663Z,2.30
2018-06-20T16:17:59.935Z,2.37
2018-06-20T16:20:33.760Z,2.30
2018-06-20T16:23:07.351Z,2.20
2018-06-20T16:25:42.259Z,2.45
2018-06-20T16:28:15.975Z,2.80
2018-06-20T16:30:45.822Z,2.10
2018-06-20T16:33:14.083Z,2.33
2018-06-20T16:35:42.349Z,2.05
2018-06-20T16:38:10.664Z,2.02
2018-06-20T16:40:38.925Z,2.20
2018-06-20T16:43:07.194Z,2.25
2018-06-20T16:45:36.189Z,2.37
2018-06-20T16:48:04.475Z,2.20
2018-06-20T16:50:32.746Z,2.10
2018-06-20T16:53:01.298Z,2.35
2018-06-20T16:55:29.538Z,2.00
2018-06-20T16:57:57.808Z,1.90
2018-06-20T17:00:26.266Z,1.98
2018-06-20T17:02:54.504Z,2.17
2018-06-20T17:05:22.771Z,2.27
2018-06-20T17:07:53.032Z,1.98
2018-06-20T17:10:22.056Z,2.20
2018-06-20T17:12:56.438Z,2.05
2018-06-20T17:15:29.985Z,2.05
2018-06-20T17:18:03.985Z,2.25
2018-06-20T17:20:37.661Z,2.08
2018-06-20T17:23:12.590Z,2.30
2018-06-20T17:25:40.962Z,2.40
2018-06-20T17:28:09.259Z,2.72
2018-06-20T17:30:37.746Z,1.82
2018-06-20T17:33:06.093Z,2.37
2018-06-20T17:35:34.332Z,2.05
2018-06-20T17:38:03.017Z,2.10
2018-06-20T17:40:31.251Z,2.35
2018-06-20T17:42:59.507Z,2.12
2018-06-20T17:45:29.544Z,2.37
2018-06-20T17:47:57.827Z,2.58
2018-06-20T17:50:26.244Z,2.42
2018-06-20T17:52:54.891Z,2.30
2018-06-20T17:55:23.147Z,2.35
2018-06-20T17:57:51.538Z,2.35
2018-06-20T18:00:19.841Z,2.58
2018-06-20T18:02:48.079Z,2.30
2018-06-20T18:05:22.311Z,2.27
2018-06-20T18:07:59.205Z,2.30
2018-06-20T18:10:32.969Z,2.33
2018-06-20T18:13:03.783Z,2.22
2018-06-20T18:16:39.270Z,2.52
2018-06-20T18:19:07.482Z,1.98
2018-06-20T18:21:35.769Z,1.90
2018-06-20T18:24:04.730Z,2.47
2018-06-20T18:26:39.296Z,2.47
2018-06-20T18:29:07.659Z,2.22
2018-06-20T18:31:35.956Z,2.10
2018-06-20T18:34:04.208Z,2.15
2018-06-20T18:36:32.510Z,2.37
2018-06-20T18:39:00.771Z,1.82
2018-06-20T18:41:28.776Z,2.50
2018-06-20T18:43:57.602Z,2.08
2018-06-20T18:46:25.839Z,2.50
2018-06-20T18:48:54.126Z,2.33
2018-06-20T18:51:22.576Z,2.55
2018-06-20T18:53:50.801Z,2.70
2018-06-20T18:56:19.373Z,2.25
2018-06-20T18:58:53.103Z,2.12
2018-06-20T19:01:26.718Z,2.92
2018-06-20T19:04:00.796Z,2.02
2018-06-20T19:06:34.904Z,2.30
2018-06-20T19:09:10.752Z,2.30
2018-06-20T19:11:39.044Z,2.20
2018-06-20T19:14:07.311Z,2.85
2018-06-20T19:16:35.822Z,2.50
2018-06-20T19:19:04.115Z,2.20
2018-06-20T19:21:32.399Z,2.27
2018-06-20T19:24:01.071Z,2.65
2018-06-20T19:26:29.486Z,2.58
2018-06-20T19:28:57.787Z,2.80
2018-06-20T19:31:26.631Z,2.30
2018-06-20T19:33:54.885Z,1.98
2018-06-20T19:36:23.113Z,2.50
2018-06-20T19:38:51.749Z,2.62
2018-06-20T19:41:20.019Z,2.20
2018-06-20T19:43:53.690Z,2.50
2018-06-20T19:46:21.983Z,2.47
2018-06-20T19:48:50.225Z,2.10
2018-06-20T19:51:18.786Z,2.40
2018-06-20T19:53:47.039Z,2.58
2018-06-20T19:56:15.299Z,2.40
2018-06-20T19:58:44.623Z,2.65
2018-06-20T20:01:12.947Z,2.40
2018-06-20T20:03:41.247Z,2.70
2018-06-20T20:06:09.498Z,2.40
2018-06-20T20:08:39.209Z,2.10
2018-06-20T20:11:07.738Z,2.20
2018-06-20T20:13:36.077Z,2.10
2018-06-20T20:16:04.547Z,2.62
2018-06-20T20:18:32.984Z,2.30
2018-06-20T20:21:01.235Z,2.37
2018-06-20T20:23:29.552Z,1.98
2018-06-20T20:25:58.525Z,2.05
2018-06-20T20:28:26.767Z,2.00
2018-06-20T20:30:55.001Z,2.20
2018-06-20T20:33:23.398Z,1.98
2018-06-20T20:35:51.414Z,1.80
2018-06-20T20:38:19.673Z,1.92
2018-06-20T20:40:47.985Z,2.30
2018-06-20T20:43:16.226Z,1.98
2018-06-20T20:45:44.576Z,2.05
2018-06-20T20:48:13.618Z,2.08
2018-06-20T20:50:41.843Z,1.87
2018-06-20T20:53:10.080Z,2.35
2018-06-20T20:55:38.347Z,1.90
2018-06-20T20:58:06.570Z,1.80
2018-06-20T21:00:34.824Z,1.90
2018-06-20T21:03:06.791Z,1.85
2018-06-20T21:05:35.018Z,1.95
2018-06-20T21:08:08.247Z,1.80
2018-06-20T21:10:36.494Z,2.12
2018-06-20T21:13:04.784Z,2.20
2018-06-20T21:15:33.394Z,1.77
2018-06-20T21:18:01.620Z,1.90
2018-06-20T21:20:29.929Z,1.72
2018-06-20T21:22:58.727Z,1.90
2018-06-20T21:25:27.142Z,1.90
2018-06-20T21:27:55.208Z,1.77
2018-06-20T21:30:24.575Z,1.70
2018-06-20T21:32:53.068Z,1.57
2018-06-20T21:35:21.319Z,1.45
2018-06-20T21:37:49.627Z,1.50
2018-06-20T21:40:17.878Z,2.00
2018-06-20T21:42:46.135Z,1.72
2018-06-20T21:45:14.442Z,1.75
2018-06-20T21:47:42.687Z,1.47
2018-06-20T21:50:11.011Z,1.70
2018-06-20T21:52:40.479Z,1.45
2018-06-20T21:55:08.740Z,1.60
2018-06-20T21:57:36.969Z,1.82
2018-06-20T22:00:09.131Z,1.80
2018-06-20T22:02:37.572Z,1.40
2018-06-20T22:05:06.027Z,1.70
2018-06-20T22:07:35.609Z,1.80
2018-06-20T22:10:04.530Z,1.50
2018-06-20T22:12:32.929Z,1.72
2018-06-20T22:15:01.642Z,1.70
2018-06-20T22:17:29.795Z,1.70
2018-06-20T22:19:58.066Z,1.60
2018-06-20T22:22:26.575Z,1.62
2018-06-20T22:24:54.824Z,1.62
2018-06-20T22:27:23.281Z,1.50
2018-06-20T22:29:52.161Z,1.67
2018-06-20T22:32:20.459Z,1.50
2018-06-20T22:34:48.754Z,1.50
2018-06-20T22:37:17.475Z,1.40
2018-06-20T22:39:45.794Z,1.27
2018-06-20T22:42:14.034Z,1.60
2018-06-20T22:44:42.374Z,1.62
2018-06-20T22:47:10.669Z,1.65
2018-06-20T22:49:39.089Z,1.60
2018-06-20T22:52:07.753Z,1.50
2018-06-20T22:54:36.056Z,1.45
2018-06-20T22:57:04.290Z,1.12
2018-06-20T22:59:32.681Z,1.50
2018-06-20T23:02:00.951Z,1.40
2018-06-20T23:04:29.192Z,1.67
2018-06-20T23:06:57.630Z,1.30
2018-06-20T23:09:27.531Z,1.52
2018-06-20T23:11:55.765Z,1.50
2018-06-20T23:14:24.289Z,1.40
2018-06-20T23:16:52.519Z,1.60
2018-06-20T23:19:20.735Z,1.55
2018-06-20T23:21:48.985Z,1.30
2018-06-20T23:24:17.293Z,1.22
2018-06-20T23:26:45.514Z,1.35
2018-06-20T23:29:14.678Z,1.52
2018-06-20T23:31:42.890Z,1.40
2018-06-20T23:34:11.187Z,1.30
2018-06-20T23:36:39.627Z,1.40
2018-06-20T23:39:09.038Z,1.47
2018-06-20T23:41:37.725Z,1.37
2018-06-20T23:44:06.022Z,1.45
2018-06-20T23:46:34.237Z,1.40
2018-06-20T23:49:02.542Z,1.27
2018-06-20T23:51:31.660Z,1.40
2018-06-20T23:53:59.883Z,1.37
2018-06-20T23:56:28.177Z,1.30
2018-06-20T23:58:56.470Z,1.07
